Atlanta, Georgia
Current Conditions -  °F | °C
As of 7:52 AM on Saturday 25 Oct 2014 (Local Time) from KATL Reporting Station
Few Clouds Few Clouds  
Wind Chill:   Ceiling: Unl
Heat Index:   Visibility: 10mi
Dew Point:   Wind: 8mph
Humidity: 77%   Direction: 330°NNW
Pressure: 30.05"   Gusts: NA
Location:  33.75°N, 84.39°W
Report Text: KATL 251152Z 33007KT 10SM FEW250 09/06 A3005 RMK AO2 SLP176 T00940056 10117 20089 52011 $
Loading
Personal Weather Stations






























Interactive Weather Map New forecast layout! Learn more

10-Day Weather Forecast

Advertisements
Track Severe Weather on mobile